WetterOnline ( https://www.wetteronline.at )

Wetter aktuell Erzgebirge/West (in 800m)

Aktuelles Wetter: Carlsfeld (899m)

6-stündlich | Neueste Meldungen
Ortszeit Temperatur Wetter
Do, 02.07. 20:00 18.1° C wolkig
Do, 02.07. 14:00 19.3° C wolkig
Do, 02.07. 8:00 15.1° C Sprühregen
Do, 02.07. 2:00 15.2° C leicht bewölkt
Mi, 01.07. 20:00 22.4° C leicht bewölkt
Mi, 01.07. 14:00 21.1° C leicht bewölkt
Mi, 01.07. 8:00 14.2° C wolkenlos
Mi, 01.07. 2:00 11.4° C wolkenlos
Ortszeit Temperatur Wetter
Do, 02.07. 20:30 17.2° C bewölkt
Do, 02.07. 20:20 17.2° C bewölkt
Do, 02.07. 20:10 17.5° C bewölkt
Do, 02.07. 20:00 18.1° C wolkig
Do, 02.07. 19:50 18.1° C wolkig
Do, 02.07. 19:40 18.2° C wolkig
Do, 02.07. 19:30 18.9° C leicht bewölkt
Do, 02.07. 19:00 19.3° C wolkig
Ortszeit Relative Feuchte Sichtweite
Do, 02.07. 20:00 55% 65 km
Do, 02.07. 14:00 56% 45 km
Do, 02.07. 8:00 88% 40 km
Do, 02.07. 2:00 82% >70 km
Mi, 01.07. 20:00 50% >70 km
Mi, 01.07. 14:00 59% 60 km
Mi, 01.07. 8:00 78% 50 km
Mi, 01.07. 2:00 84% 55 km
Ortszeit Relative Feuchte Sichtweite
Do, 02.07. 20:30 60% 60 km
Do, 02.07. 20:20 60% -
Do, 02.07. 20:10 57% -
Do, 02.07. 20:00 55% 65 km
Do, 02.07. 19:50 55% -
Do, 02.07. 19:40 54% -
Do, 02.07. 19:30 51% >70 km
Do, 02.07. 19:00 50% 60 km
Ortszeit Niederschlagsmenge Niederschlagsart
Do, 02.07. 20:00 0.1 l/m2 in 12 Std. -
Do, 02.07. 14:00 0.1 l/m2 in 6 Std. Regen
Do, 02.07. 8:00 0.1 l/m2 in 12 Std. Regen
Do, 02.07. 2:00 0.0 l/m2 in 6 Std. -
Mi, 01.07. 20:00 0.0 l/m2 in 12 Std. -
Mi, 01.07. 14:00 0.0 l/m2 in 6 Std. -
Mi, 01.07. 8:00 0.0 l/m2 in 12 Std. -
Mi, 01.07. 2:00 0.0 l/m2 in 6 Std. -
Ortszeit Niederschlagsmenge Niederschlagsart
Do, 02.07. 20:30 0.0 l/m2 in 1 Std. -
Do, 02.07. 20:20 keine Meldung -
Do, 02.07. 20:10 keine Meldung -
Do, 02.07. 20:00 0.0 l/m2 in 1 Std. -
Do, 02.07. 19:50 keine Meldung -
Do, 02.07. 19:40 keine Meldung -
Do, 02.07. 19:30 0.0 l/m2 in 1 Std. -
Do, 02.07. 19:00 0.0 l/m2 in 1 Std. -
Ortszeit Stärke Spitze Richtung
km/h Bft. km/h Grad Sektor
Do, 02.07. 20:00 11 2 36 250° W
Do, 02.07. 14:00 14 3 29 270° W
Do, 02.07. 8:00 7 2 29 290° W
Do, 02.07. 2:00 0 0 29 - -
Mi, 01.07. 20:00 9 2 35 280° W
Mi, 01.07. 14:00 22 4 43 250° W
Mi, 01.07. 8:00 18 3 40 250° W
Mi, 01.07. 2:00 9 2 31 250° W
Ortszeit Stärke Spitze Richtung
km/h Bft. km/h Grad Sektor
Do, 02.07. 20:30 11 2 25 260° W
Do, 02.07. 20:20 11 2 - 260° W
Do, 02.07. 20:10 11 2 - 260° W
Do, 02.07. 20:00 11 2 25 250° W
Do, 02.07. 19:50 11 2 - 250° W
Do, 02.07. 19:40 11 2 - 250° W
Do, 02.07. 19:30 11 2 25 240° SW
Do, 02.07. 19:00 11 2 25 250° W
Ortszeit Untergrenze Bedeckung Gattung
total tief tief mittel hoch
Do, 02.07. 20:00 6600 m 7/8 4/8 - - -
Do, 02.07. 14:00 1050 m 7/8 3/8 - - -
Do, 02.07. 8:00 270 m 7/8 7/8 - - -
Do, 02.07. 2:00 1260 m 2/8 2/8 - - -
Mi, 01.07. 20:00 1500 m 4/8 4/8 - - -
Mi, 01.07. 14:00 1050 m 2/8 2/8 - - -
Mi, 01.07. 8:00 - 0/8 0/8 - - -
Mi, 01.07. 2:00 - 0/8 0/8 - - -
Ortszeit Bedeckungsgrad in Achtel und Wolkenuntergrenze
Do, 02.07. 20:30 7(6300m)
Do, 02.07. 20:20 7(6300m)
Do, 02.07. 20:10 6(6300m) 7(6900m) 7(8100m)
Do, 02.07. 20:00 4(6600m) 7(7200m) 7(8100m)
Do, 02.07. 19:50 4(6600m) 7(7200m) 7(8100m)
Do, 02.07. 19:40 2(6600m) 6(7200m)
Do, 02.07. 19:30 3(1350m) 4(7800m) 5(8700m)
Do, 02.07. 19:00 1(1350m) 6(7500m) 7(8400m)
Ortszeit Stationsdruck (hPa) Tendenz (hPa in 3 Std.)
Do, 02.07. 20:00 910 0,0
Do, 02.07. 14:00 911 0,0
Do, 02.07. 8:00 910 + 0,7
Do, 02.07. 2:00 909 + 0,5
Mi, 01.07. 20:00 908 - 0,4
Mi, 01.07. 14:00 910 - 0,2
Mi, 01.07. 8:00 910 + 0,4
Mi, 01.07. 2:00 910 - 0,4
Ortszeit Stationsdruck (hPa) Tendenz (hPa in 3 Std.)
Do, 02.07. 20:30 911 + 0,1
Do, 02.07. 20:20 911 keine Meldung
Do, 02.07. 20:10 910 keine Meldung
Do, 02.07. 20:00 910 0,0
Do, 02.07. 19:50 910 keine Meldung
Do, 02.07. 19:40 910 keine Meldung
Do, 02.07. 19:30 910 - 0,1
Do, 02.07. 19:00 910 - 0,3
Ortszeit Schneehöhe (cm)
Do, 02.07. 20:00 -
Do, 02.07. 14:00 -
Do, 02.07. 8:00 -
Do, 02.07. 2:00 -
Mi, 01.07. 20:00 -
Mi, 01.07. 14:00 -
Mi, 01.07. 8:00 -
Mi, 01.07. 2:00 -
Ortszeit Schneehöhe (cm)
Do, 02.07. 20:30 -
Do, 02.07. 20:20 -
Do, 02.07. 20:10 -
Do, 02.07. 20:00 -
Do, 02.07. 19:50 -
Do, 02.07. 19:40 -
Do, 02.07. 19:30 -
Do, 02.07. 19:00 -
Link zu dieser Seite / Seite empfehlen

Das Wetter in ...